sensor_id;sensor_type;location;lat;lon;timestamp;P1;durP1;ratioP1;P2;durP2;ratioP2
67986;SDS011;54767;53.800;15.956;2022-09-09T00:01:51;5.70;;;4.30;;
67986;SDS011;54767;53.800;15.956;2022-09-09T00:04:32;8.00;;;4.80;;
67986;SDS011;54767;53.800;15.956;2022-09-09T00:13:13;7.30;;;4.70;;
67986;SDS011;54767;53.800;15.956;2022-09-09T00:15:20;8.20;;;4.60;;
67986;SDS011;54767;53.800;15.956;2022-09-09T00:23:35;6.00;;;4.10;;
67986;SDS011;54767;53.800;15.956;2022-09-09T00:26:21;6.30;;;4.30;;
67986;SDS011;54767;53.800;15.956;2022-09-09T00:31:41;6.30;;;4.30;;
67986;SDS011;54767;53.800;15.956;2022-09-09T00:34:20;6.90;;;4.40;;
67986;SDS011;54767;53.800;15.956;2022-09-09T00:36:52;6.60;;;4.40;;
67986;SDS011;54767;53.800;15.956;2022-09-09T00:39:25;7.40;;;4.80;;
67986;SDS011;54767;53.800;15.956;2022-09-09T00:42:14;7.20;;;4.80;;
67986;SDS011;54767;53.800;15.956;2022-09-09T00:44:59;7.20;;;4.70;;
67986;SDS011;54767;53.800;15.956;2022-09-09T00:48:00;8.90;;;5.00;;
67986;SDS011;54767;53.800;15.956;2022-09-09T00:56:17;8.50;;;5.30;;
67986;SDS011;54767;53.800;15.956;2022-09-09T01:01:32;7.30;;;4.90;;
67986;SDS011;54767;53.800;15.956;2022-09-09T01:04:01;6.80;;;4.60;;
67986;SDS011;54767;53.800;15.956;2022-09-09T01:06:37;7.40;;;5.10;;
67986;SDS011;54767;53.800;15.956;2022-09-09T01:09:26;8.10;;;5.30;;
67986;SDS011;54767;53.800;15.956;2022-09-09T01:17:10;8.90;;;5.10;;
67986;SDS011;54767;53.800;15.956;2022-09-09T01:19:52;8.80;;;5.50;;
67986;SDS011;54767;53.800;15.956;2022-09-09T01:25:13;11.00;;;5.80;;
67986;SDS011;54767;53.800;15.956;2022-09-09T01:27:43;9.10;;;6.30;;
67986;SDS011;54767;53.800;15.956;2022-09-09T01:30:16;10.00;;;6.50;;
67986;SDS011;54767;53.800;15.956;2022-09-09T01:32:46;9.40;;;5.80;;
67986;SDS011;54767;53.800;15.956;2022-09-09T01:38:02;10.10;;;6.70;;
67986;SDS011;54767;53.800;15.956;2022-09-09T01:40:31;10.00;;;6.50;;
67986;SDS011;54767;53.800;15.956;2022-09-09T01:43:00;9.60;;;6.10;;
67986;SDS011;54767;53.800;15.956;2022-09-09T01:45:28;8.70;;;6.20;;
67986;SDS011;54767;53.800;15.956;2022-09-09T01:47:56;10.90;;;6.70;;
67986;SDS011;54767;53.800;15.956;2022-09-09T01:50:25;10.50;;;6.60;;
67986;SDS011;54767;53.800;15.956;2022-09-09T01:52:55;14.50;;;7.10;;
67986;SDS011;54767;53.800;15.956;2022-09-09T01:55:30;11.70;;;7.10;;
67986;SDS011;54767;53.800;15.956;2022-09-09T02:01:00;11.30;;;6.70;;
67986;SDS011;54767;53.800;15.956;2022-09-09T02:03:57;10.50;;;6.70;;
67986;SDS011;54767;53.800;15.956;2022-09-09T02:06:29;10.90;;;6.60;;
67986;SDS011;54767;53.800;15.956;2022-09-09T02:09:04;12.60;;;7.10;;
67986;SDS011;54767;53.800;15.956;2022-09-09T02:11:34;11.50;;;7.10;;
67986;SDS011;54767;53.800;15.956;2022-09-09T02:14:08;9.50;;;6.10;;
67986;SDS011;54767;53.800;15.956;2022-09-09T02:16:42;10.20;;;6.50;;
67986;SDS011;54767;53.800;15.956;2022-09-09T02:19:17;11.20;;;6.80;;
67986;SDS011;54767;53.800;15.956;2022-09-09T02:21:59;10.40;;;6.90;;
67986;SDS011;54767;53.800;15.956;2022-09-09T02:24:29;11.20;;;6.60;;
67986;SDS011;54767;53.800;15.956;2022-09-09T02:27:01;10.70;;;6.80;;
67986;SDS011;54767;53.800;15.956;2022-09-09T02:29:36;10.40;;;7.00;;
67986;SDS011;54767;53.800;15.956;2022-09-09T02:32:10;9.80;;;6.60;;
67986;SDS011;54767;53.800;15.956;2022-09-09T02:34:46;11.40;;;7.30;;
67986;SDS011;54767;53.800;15.956;2022-09-09T02:37:22;10.50;;;6.90;;
67986;SDS011;54767;53.800;15.956;2022-09-09T02:39:56;9.10;;;6.50;;
67986;SDS011;54767;53.800;15.956;2022-09-09T02:42:24;11.20;;;7.00;;
67986;SDS011;54767;53.800;15.956;2022-09-09T02:44:52;10.80;;;7.60;;
67986;SDS011;54767;53.800;15.956;2022-09-09T02:52:50;12.70;;;7.10;;
67986;SDS011;54767;53.800;15.956;2022-09-09T02:57:56;10.40;;;7.40;;
67986;SDS011;54767;53.800;15.956;2022-09-09T03:00:26;10.90;;;7.00;;
67986;SDS011;54767;53.800;15.956;2022-09-09T03:02:56;10.40;;;7.70;;
67986;SDS011;54767;53.800;15.956;2022-09-09T03:05:27;11.20;;;7.50;;
67986;SDS011;54767;53.800;15.956;2022-09-09T03:07:55;10.00;;;6.80;;
67986;SDS011;54767;53.800;15.956;2022-09-09T03:10:24;10.70;;;7.50;;
67986;SDS011;54767;53.800;15.956;2022-09-09T03:12:52;10.40;;;7.30;;
67986;SDS011;54767;53.800;15.956;2022-09-09T03:15:21;10.70;;;7.40;;
67986;SDS011;54767;53.800;15.956;2022-09-09T03:17:49;12.20;;;7.10;;
67986;SDS011;54767;53.800;15.956;2022-09-09T03:20:17;9.70;;;7.20;;
67986;SDS011;54767;53.800;15.956;2022-09-09T03:22:45;12.30;;;7.80;;
67986;SDS011;54767;53.800;15.956;2022-09-09T03:25:13;11.80;;;7.40;;
67986;SDS011;54767;53.800;15.956;2022-09-09T03:27:41;12.50;;;9.00;;
67986;SDS011;54767;53.800;15.956;2022-09-09T03:30:09;10.40;;;7.30;;
67986;SDS011;54767;53.800;15.956;2022-09-09T03:32:38;12.50;;;8.00;;
67986;SDS011;54767;53.800;15.956;2022-09-09T03:35:07;10.30;;;7.20;;
67986;SDS011;54767;53.800;15.956;2022-09-09T03:37:36;10.90;;;7.20;;
67986;SDS011;54767;53.800;15.956;2022-09-09T03:40:06;13.40;;;7.20;;
67986;SDS011;54767;53.800;15.956;2022-09-09T03:45:05;11.30;;;7.50;;
67986;SDS011;54767;53.800;15.956;2022-09-09T03:47:35;11.30;;;7.40;;
67986;SDS011;54767;53.800;15.956;2022-09-09T03:50:04;10.50;;;7.40;;
67986;SDS011;54767;53.800;15.956;2022-09-09T03:52:36;11.00;;;7.80;;
67986;SDS011;54767;53.800;15.956;2022-09-09T03:55:05;10.00;;;7.40;;
67986;SDS011;54767;53.800;15.956;2022-09-09T03:57:34;9.50;;;7.40;;
67986;SDS011;54767;53.800;15.956;2022-09-09T04:00:04;12.20;;;7.90;;
67986;SDS011;54767;53.800;15.956;2022-09-09T04:02:34;10.00;;;7.40;;
67986;SDS011;54767;53.800;15.956;2022-09-09T04:05:02;10.20;;;7.20;;
67986;SDS011;54767;53.800;15.956;2022-09-09T04:07:31;10.30;;;7.30;;
67986;SDS011;54767;53.800;15.956;2022-09-09T04:10:00;10.10;;;7.00;;
67986;SDS011;54767;53.800;15.956;2022-09-09T04:12:30;10.70;;;7.60;;
67986;SDS011;54767;53.800;15.956;2022-09-09T04:14:58;11.60;;;7.40;;
67986;SDS011;54767;53.800;15.956;2022-09-09T04:17:26;10.70;;;7.30;;
67986;SDS011;54767;53.800;15.956;2022-09-09T04:19:54;8.80;;;6.80;;
67986;SDS011;54767;53.800;15.956;2022-09-09T04:22:23;11.00;;;7.70;;
67986;SDS011;54767;53.800;15.956;2022-09-09T04:24:51;10.70;;;7.70;;
67986;SDS011;54767;53.800;15.956;2022-09-09T04:27:19;9.80;;;6.80;;
67986;SDS011;54767;53.800;15.956;2022-09-09T04:29:47;9.70;;;6.90;;
67986;SDS011;54767;53.800;15.956;2022-09-09T04:32:15;9.60;;;7.00;;
67986;SDS011;54767;53.800;15.956;2022-09-09T04:34:43;10.80;;;7.40;;
67986;SDS011;54767;53.800;15.956;2022-09-09T04:37:12;11.40;;;7.40;;
67986;SDS011;54767;53.800;15.956;2022-09-09T04:39:41;9.30;;;7.30;;
67986;SDS011;54767;53.800;15.956;2022-09-09T04:42:09;9.70;;;6.90;;
67986;SDS011;54767;53.800;15.956;2022-09-09T04:44:38;10.00;;;7.00;;
67986;SDS011;54767;53.800;15.956;2022-09-09T04:47:06;10.40;;;7.50;;
67986;SDS011;54767;53.800;15.956;2022-09-09T04:49:35;10.10;;;6.60;;
67986;SDS011;54767;53.800;15.956;2022-09-09T04:52:04;10.70;;;7.20;;
67986;SDS011;54767;53.800;15.956;2022-09-09T04:54:32;10.20;;;7.70;;
67986;SDS011;54767;53.800;15.956;2022-09-09T04:57:00;9.50;;;6.90;;
67986;SDS011;54767;53.800;15.956;2022-09-09T04:59:29;10.20;;;7.40;;
67986;SDS011;54767;53.800;15.956;2022-09-09T05:01:57;11.20;;;7.70;;
67986;SDS011;54767;53.800;15.956;2022-09-09T05:06:56;9.60;;;7.60;;
67986;SDS011;54767;53.800;15.956;2022-09-09T05:09:25;10.40;;;7.10;;
67986;SDS011;54767;53.800;15.956;2022-09-09T05:11:53;11.60;;;7.90;;
67986;SDS011;54767;53.800;15.956;2022-09-09T05:14:21;11.40;;;8.20;;
67986;SDS011;54767;53.800;15.956;2022-09-09T05:16:49;11.40;;;8.00;;
67986;SDS011;54767;53.800;15.956;2022-09-09T05:19:17;10.70;;;7.70;;
67986;SDS011;54767;53.800;15.956;2022-09-09T05:24:15;12.40;;;8.80;;
67986;SDS011;54767;53.800;15.956;2022-09-09T05:26:44;13.60;;;8.70;;
67986;SDS011;54767;53.800;15.956;2022-09-09T05:29:12;12.90;;;9.00;;
67986;SDS011;54767;53.800;15.956;2022-09-09T05:31:40;11.90;;;8.40;;
67986;SDS011;54767;53.800;15.956;2022-09-09T05:34:09;12.80;;;8.80;;
67986;SDS011;54767;53.800;15.956;2022-09-09T05:36:37;14.50;;;9.10;;
67986;SDS011;54767;53.800;15.956;2022-09-09T05:39:05;13.50;;;9.40;;
67986;SDS011;54767;53.800;15.956;2022-09-09T05:41:33;13.90;;;10.20;;
67986;SDS011;54767;53.800;15.956;2022-09-09T05:44:03;15.40;;;10.20;;
67986;SDS011;54767;53.800;15.956;2022-09-09T05:46:32;13.60;;;9.70;;
67986;SDS011;54767;53.800;15.956;2022-09-09T05:49:01;14.10;;;9.80;;
67986;SDS011;54767;53.800;15.956;2022-09-09T05:51:30;14.50;;;10.10;;
67986;SDS011;54767;53.800;15.956;2022-09-09T05:53:58;14.70;;;10.00;;
67986;SDS011;54767;53.800;15.956;2022-09-09T05:56:27;13.60;;;9.50;;
67986;SDS011;54767;53.800;15.956;2022-09-09T05:58:56;16.00;;;10.40;;
67986;SDS011;54767;53.800;15.956;2022-09-09T06:01:25;13.50;;;9.30;;
67986;SDS011;54767;53.800;15.956;2022-09-09T06:03:58;14.70;;;9.50;;
67986;SDS011;54767;53.800;15.956;2022-09-09T06:06:29;14.30;;;9.40;;
67986;SDS011;54767;53.800;15.956;2022-09-09T06:09:05;15.10;;;10.40;;
67986;SDS011;54767;53.800;15.956;2022-09-09T06:11:38;14.90;;;9.90;;
67986;SDS011;54767;53.800;15.956;2022-09-09T06:14:07;13.10;;;9.70;;
67986;SDS011;54767;53.800;15.956;2022-09-09T06:16:36;14.60;;;9.80;;
67986;SDS011;54767;53.800;15.956;2022-09-09T06:19:05;16.10;;;10.40;;
67986;SDS011;54767;53.800;15.956;2022-09-09T06:21:34;14.30;;;9.60;;
67986;SDS011;54767;53.800;15.956;2022-09-09T06:24:08;13.00;;;9.20;;
67986;SDS011;54767;53.800;15.956;2022-09-09T06:26:37;12.40;;;8.50;;
67986;SDS011;54767;53.800;15.956;2022-09-09T06:29:09;14.30;;;8.70;;
67986;SDS011;54767;53.800;15.956;2022-09-09T06:31:37;11.60;;;8.50;;
67986;SDS011;54767;53.800;15.956;2022-09-09T06:34:06;12.50;;;8.30;;
67986;SDS011;54767;53.800;15.956;2022-09-09T06:36:37;10.20;;;8.30;;
67986;SDS011;54767;53.800;15.956;2022-09-09T06:39:06;10.40;;;7.80;;
67986;SDS011;54767;53.800;15.956;2022-09-09T06:41:41;10.40;;;7.80;;
67986;SDS011;54767;53.800;15.956;2022-09-09T06:44:10;10.30;;;7.90;;
67986;SDS011;54767;53.800;15.956;2022-09-09T06:46:41;12.20;;;8.30;;
67986;SDS011;54767;53.800;15.956;2022-09-09T06:49:09;9.60;;;7.70;;
67986;SDS011;54767;53.800;15.956;2022-09-09T06:51:37;10.60;;;7.70;;
67986;SDS011;54767;53.800;15.956;2022-09-09T06:54:11;12.40;;;8.10;;
67986;SDS011;54767;53.800;15.956;2022-09-09T06:56:40;10.70;;;8.00;;
67986;SDS011;54767;53.800;15.956;2022-09-09T06:59:11;11.30;;;7.60;;
67986;SDS011;54767;53.800;15.956;2022-09-09T07:01:41;9.20;;;7.30;;
67986;SDS011;54767;53.800;15.956;2022-09-09T07:04:19;9.50;;;7.20;;
67986;SDS011;54767;53.800;15.956;2022-09-09T07:06:47;9.80;;;6.70;;
67986;SDS011;54767;53.800;15.956;2022-09-09T07:09:15;9.10;;;7.10;;
67986;SDS011;54767;53.800;15.956;2022-09-09T07:11:45;11.50;;;8.40;;
67986;SDS011;54767;53.800;15.956;2022-09-09T07:14:14;11.10;;;7.70;;
67986;SDS011;54767;53.800;15.956;2022-09-09T07:16:44;10.70;;;8.20;;
67986;SDS011;54767;53.800;15.956;2022-09-09T07:19:13;9.70;;;7.30;;
67986;SDS011;54767;53.800;15.956;2022-09-09T07:21:42;10.20;;;7.30;;
67986;SDS011;54767;53.800;15.956;2022-09-09T07:24:10;10.70;;;8.40;;
67986;SDS011;54767;53.800;15.956;2022-09-09T07:26:40;11.30;;;8.10;;
67986;SDS011;54767;53.800;15.956;2022-09-09T07:29:08;11.10;;;7.80;;
67986;SDS011;54767;53.800;15.956;2022-09-09T07:31:38;9.60;;;7.90;;
67986;SDS011;54767;53.800;15.956;2022-09-09T07:34:07;11.10;;;8.40;;
67986;SDS011;54767;53.800;15.956;2022-09-09T07:36:36;11.50;;;9.00;;
67986;SDS011;54767;53.800;15.956;2022-09-09T07:39:08;10.80;;;8.60;;
67986;SDS011;54767;53.800;15.956;2022-09-09T07:41:39;11.40;;;8.20;;
67986;SDS011;54767;53.800;15.956;2022-09-09T07:44:13;13.00;;;9.20;;
67986;SDS011;54767;53.800;15.956;2022-09-09T07:46:42;12.70;;;9.10;;
67986;SDS011;54767;53.800;15.956;2022-09-09T07:49:13;11.90;;;8.80;;
67986;SDS011;54767;53.800;15.956;2022-09-09T07:51:42;11.80;;;8.50;;
67986;SDS011;54767;53.800;15.956;2022-09-09T07:54:13;11.80;;;9.00;;
67986;SDS011;54767;53.800;15.956;2022-09-09T07:56:43;13.70;;;9.60;;
67986;SDS011;54767;53.800;15.956;2022-09-09T07:59:11;12.80;;;9.60;;
67986;SDS011;54767;53.800;15.956;2022-09-09T08:01:41;12.20;;;9.40;;
67986;SDS011;54767;53.800;15.956;2022-09-09T08:04:15;12.70;;;9.50;;
67986;SDS011;54767;53.800;15.956;2022-09-09T08:06:48;14.00;;;10.00;;
67986;SDS011;54767;53.800;15.956;2022-09-09T08:09:21;14.70;;;10.40;;
67986;SDS011;54767;53.800;15.956;2022-09-09T08:11:52;14.00;;;11.00;;
67986;SDS011;54767;53.800;15.956;2022-09-09T08:14:20;12.60;;;9.60;;
67986;SDS011;54767;53.800;15.956;2022-09-09T08:16:49;11.40;;;9.50;;
67986;SDS011;54767;53.800;15.956;2022-09-09T08:19:21;11.60;;;9.10;;
67986;SDS011;54767;53.800;15.956;2022-09-09T08:21:50;12.40;;;9.40;;
67986;SDS011;54767;53.800;15.956;2022-09-09T08:24:18;11.50;;;8.30;;
67986;SDS011;54767;53.800;15.956;2022-09-09T08:26:47;11.40;;;8.70;;
67986;SDS011;54767;53.800;15.956;2022-09-09T08:31:47;11.20;;;7.80;;
67986;SDS011;54767;53.800;15.956;2022-09-09T08:34:17;10.30;;;8.00;;
67986;SDS011;54767;53.800;15.956;2022-09-09T08:36:48;10.10;;;7.60;;
67986;SDS011;54767;53.800;15.956;2022-09-09T08:39:18;9.90;;;8.10;;
67986;SDS011;54767;53.800;15.956;2022-09-09T08:47:21;11.40;;;8.10;;
67986;SDS011;54767;53.800;15.956;2022-09-09T08:52:56;10.50;;;8.20;;
67986;SDS011;54767;53.800;15.956;2022-09-09T08:55:46;9.20;;;7.00;;
67986;SDS011;54767;53.800;15.956;2022-09-09T08:58:19;9.50;;;7.80;;
67986;SDS011;54767;53.800;15.956;2022-09-09T09:03:52;9.40;;;7.30;;
67986;SDS011;54767;53.800;15.956;2022-09-09T09:12:19;9.20;;;6.80;;
67986;SDS011;54767;53.800;15.956;2022-09-09T09:14:53;9.20;;;6.70;;
67986;SDS011;54767;53.800;15.956;2022-09-09T09:17:27;10.00;;;6.50;;
67986;SDS011;54767;53.800;15.956;2022-09-09T09:19:59;7.10;;;6.30;;
67986;SDS011;54767;53.800;15.956;2022-09-09T09:25:22;7.60;;;6.30;;
67986;SDS011;54767;53.800;15.956;2022-09-09T09:28:02;10.10;;;7.10;;
67986;SDS011;54767;53.800;15.956;2022-09-09T09:30:53;8.90;;;6.50;;
67986;SDS011;54767;53.800;15.956;2022-09-09T09:36:03;7.70;;;6.90;;
67986;SDS011;54767;53.800;15.956;2022-09-09T09:38:34;7.50;;;6.50;;
67986;SDS011;54767;53.800;15.956;2022-09-09T09:43:59;8.50;;;6.30;;
67986;SDS011;54767;53.800;15.956;2022-09-09T09:46:28;8.00;;;6.20;;
67986;SDS011;54767;53.800;15.956;2022-09-09T09:49:00;6.90;;;5.90;;
67986;SDS011;54767;53.800;15.956;2022-09-09T09:51:32;7.50;;;6.00;;
67986;SDS011;54767;53.800;15.956;2022-09-09T09:54:09;7.10;;;6.00;;
67986;SDS011;54767;53.800;15.956;2022-09-09T10:02:31;7.70;;;6.20;;
67986;SDS011;54767;53.800;15.956;2022-09-09T10:05:05;8.00;;;6.50;;
67986;SDS011;54767;53.800;15.956;2022-09-09T10:07:41;8.40;;;6.50;;
67986;SDS011;54767;53.800;15.956;2022-09-09T10:10:15;7.60;;;6.40;;
67986;SDS011;54767;53.800;15.956;2022-09-09T10:18:25;9.20;;;6.40;;
67986;SDS011;54767;53.800;15.956;2022-09-09T10:29:31;6.00;;;5.20;;
67986;SDS011;54767;53.800;15.956;2022-09-09T10:32:11;8.90;;;5.60;;
67986;SDS011;54767;53.800;15.956;2022-09-09T10:34:56;6.40;;;5.50;;
67986;SDS011;54767;53.800;15.956;2022-09-09T10:56:20;6.60;;;5.50;;
67986;SDS011;54767;53.800;15.956;2022-09-09T11:01:53;5.80;;;5.10;;
67986;SDS011;54767;53.800;15.956;2022-09-09T11:04:32;7.10;;;5.10;;
67986;SDS011;54767;53.800;15.956;2022-09-09T11:07:08;5.80;;;4.60;;
67986;SDS011;54767;53.800;15.956;2022-09-09T11:09:45;7.20;;;5.30;;
67986;SDS011;54767;53.800;15.956;2022-09-09T11:12:21;5.60;;;4.90;;
67986;SDS011;54767;53.800;15.956;2022-09-09T11:14:54;6.00;;;4.90;;
67986;SDS011;54767;53.800;15.956;2022-09-09T11:17:45;4.90;;;4.40;;
67986;SDS011;54767;53.800;15.956;2022-09-09T11:20:18;5.30;;;4.20;;
67986;SDS011;54767;53.800;15.956;2022-09-09T11:22:48;5.20;;;4.20;;
67986;SDS011;54767;53.800;15.956;2022-09-09T11:31:21;4.80;;;4.40;;
67986;SDS011;54767;53.800;15.956;2022-09-09T11:34:16;5.20;;;3.80;;
67986;SDS011;54767;53.800;15.956;2022-09-09T11:37:02;4.30;;;3.90;;
67986;SDS011;54767;53.800;15.956;2022-09-09T11:42:37;4.40;;;3.90;;
67986;SDS011;54767;53.800;15.956;2022-09-09T11:45:09;4.40;;;4.00;;
67986;SDS011;54767;53.800;15.956;2022-09-09T11:47:54;4.90;;;3.90;;
67986;SDS011;54767;53.800;15.956;2022-09-09T11:53:02;4.30;;;3.90;;
67986;SDS011;54767;53.800;15.956;2022-09-09T11:55:59;6.40;;;4.70;;
67986;SDS011;54767;53.800;15.956;2022-09-09T11:58:43;4.40;;;4.00;;
67986;SDS011;54767;53.800;15.956;2022-09-09T12:01:28;5.60;;;4.00;;
67986;SDS011;54767;53.800;15.956;2022-09-09T12:06:54;4.90;;;4.10;;
67986;SDS011;54767;53.800;15.956;2022-09-09T12:09:45;3.80;;;3.50;;
67986;SDS011;54767;53.800;15.956;2022-09-09T12:12:21;5.60;;;3.90;;
67986;SDS011;54767;53.800;15.956;2022-09-09T12:17:42;4.10;;;3.80;;
67986;SDS011;54767;53.800;15.956;2022-09-09T12:20:14;4.50;;;4.10;;
67986;SDS011;54767;53.800;15.956;2022-09-09T12:37:43;5.00;;;4.00;;
67986;SDS011;54767;53.800;15.956;2022-09-09T12:42:45;4.50;;;4.10;;
67986;SDS011;54767;53.800;15.956;2022-09-09T12:50:29;4.50;;;3.80;;
67986;SDS011;54767;53.800;15.956;2022-09-09T12:53:04;4.40;;;4.00;;
67986;SDS011;54767;53.800;15.956;2022-09-09T12:55:37;4.80;;;3.80;;
67986;SDS011;54767;53.800;15.956;2022-09-09T12:58:06;3.90;;;3.50;;
67986;SDS011;54767;53.800;15.956;2022-09-09T13:00:35;5.80;;;4.10;;
67986;SDS011;54767;53.800;15.956;2022-09-09T13:03:14;3.90;;;3.60;;
67986;SDS011;54767;53.800;15.956;2022-09-09T13:05:45;5.00;;;3.80;;
67986;SDS011;54767;53.800;15.956;2022-09-09T13:08:14;4.20;;;3.90;;
67986;SDS011;54767;53.800;15.956;2022-09-09T13:10:51;4.30;;;3.90;;
67986;SDS011;54767;53.800;15.956;2022-09-09T13:16:17;3.60;;;3.30;;
67986;SDS011;54767;53.800;15.956;2022-09-09T13:18:51;2.90;;;2.80;;
67986;SDS011;54767;53.800;15.956;2022-09-09T13:21:30;4.10;;;2.90;;
67986;SDS011;54767;53.800;15.956;2022-09-09T13:24:00;3.10;;;2.80;;
67986;SDS011;54767;53.800;15.956;2022-09-09T13:26:31;5.50;;;3.10;;
67986;SDS011;54767;53.800;15.956;2022-09-09T13:29:15;5.30;;;3.10;;
67986;SDS011;54767;53.800;15.956;2022-09-09T13:31:46;3.20;;;2.70;;
67986;SDS011;54767;53.800;15.956;2022-09-09T13:34:29;3.90;;;3.00;;
67986;SDS011;54767;53.800;15.956;2022-09-09T13:36:59;3.10;;;2.90;;
67986;SDS011;54767;53.800;15.956;2022-09-09T13:39:30;3.60;;;3.10;;
67986;SDS011;54767;53.800;15.956;2022-09-09T13:41:59;4.70;;;3.20;;
67986;SDS011;54767;53.800;15.956;2022-09-09T13:44:27;4.30;;;3.00;;
67986;SDS011;54767;53.800;15.956;2022-09-09T13:47:20;3.30;;;3.00;;
67986;SDS011;54767;53.800;15.956;2022-09-09T13:49:55;3.30;;;3.00;;
67986;SDS011;54767;53.800;15.956;2022-09-09T13:52:24;3.00;;;2.80;;
67986;SDS011;54767;53.800;15.956;2022-09-09T13:54:55;4.60;;;4.00;;
67986;SDS011;54767;53.800;15.956;2022-09-09T13:57:24;6.50;;;4.50;;
67986;SDS011;54767;53.800;15.956;2022-09-09T13:59:53;4.60;;;3.70;;
67986;SDS011;54767;53.800;15.956;2022-09-09T14:02:32;3.70;;;3.20;;
67986;SDS011;54767;53.800;15.956;2022-09-09T14:05:01;7.00;;;5.10;;
67986;SDS011;54767;53.800;15.956;2022-09-09T14:07:29;6.50;;;4.70;;
67986;SDS011;54767;53.800;15.956;2022-09-09T14:09:58;5.20;;;4.10;;
67986;SDS011;54767;53.800;15.956;2022-09-09T14:12:26;3.10;;;2.90;;
67986;SDS011;54767;53.800;15.956;2022-09-09T14:14:55;2.90;;;2.70;;
67986;SDS011;54767;53.800;15.956;2022-09-09T14:17:23;3.30;;;3.00;;
67986;SDS011;54767;53.800;15.956;2022-09-09T14:19:58;3.60;;;2.70;;
67986;SDS011;54767;53.800;15.956;2022-09-09T14:22:26;3.10;;;2.90;;
67986;SDS011;54767;53.800;15.956;2022-09-09T14:24:56;3.10;;;2.80;;
67986;SDS011;54767;53.800;15.956;2022-09-09T14:27:25;3.80;;;2.70;;
67986;SDS011;54767;53.800;15.956;2022-09-09T14:29:56;4.20;;;2.90;;
67986;SDS011;54767;53.800;15.956;2022-09-09T14:32:25;4.10;;;3.40;;
67986;SDS011;54767;53.800;15.956;2022-09-09T14:34:54;3.80;;;2.90;;
67986;SDS011;54767;53.800;15.956;2022-09-09T14:37:22;2.70;;;2.40;;
67986;SDS011;54767;53.800;15.956;2022-09-09T14:39:55;3.10;;;2.40;;
67986;SDS011;54767;53.800;15.956;2022-09-09T14:42:28;2.50;;;2.30;;
67986;SDS011;54767;53.800;15.956;2022-09-09T14:44:59;2.50;;;2.30;;
67986;SDS011;54767;53.800;15.956;2022-09-09T14:47:27;2.60;;;2.40;;
67986;SDS011;54767;53.800;15.956;2022-09-09T14:49:55;3.00;;;2.50;;
67986;SDS011;54767;53.800;15.956;2022-09-09T14:52:23;4.50;;;3.70;;
67986;SDS011;54767;53.800;15.956;2022-09-09T14:57:21;5.20;;;4.80;;
67986;SDS011;54767;53.800;15.956;2022-09-09T14:59:49;4.60;;;4.20;;
67986;SDS011;54767;53.800;15.956;2022-09-09T15:02:18;4.40;;;4.00;;
67986;SDS011;54767;53.800;15.956;2022-09-09T15:04:46;3.90;;;2.80;;
67986;SDS011;54767;53.800;15.956;2022-09-09T15:07:14;3.40;;;2.70;;
67986;SDS011;54767;53.800;15.956;2022-09-09T15:09:42;4.00;;;2.50;;
67986;SDS011;54767;53.800;15.956;2022-09-09T15:12:10;3.00;;;2.80;;
67986;SDS011;54767;53.800;15.956;2022-09-09T15:14:38;2.90;;;2.70;;
67986;SDS011;54767;53.800;15.956;2022-09-09T15:17:06;2.80;;;2.60;;
67986;SDS011;54767;53.800;15.956;2022-09-09T15:19:35;2.80;;;2.60;;
67986;SDS011;54767;53.800;15.956;2022-09-09T15:22:04;3.60;;;3.30;;
67986;SDS011;54767;53.800;15.956;2022-09-09T15:24:33;4.20;;;3.30;;
67986;SDS011;54767;53.800;15.956;2022-09-09T15:27:02;3.50;;;3.20;;
67986;SDS011;54767;53.800;15.956;2022-09-09T15:29:30;4.10;;;3.40;;
67986;SDS011;54767;53.800;15.956;2022-09-09T15:31:59;4.80;;;3.00;;
67986;SDS011;54767;53.800;15.956;2022-09-09T15:34:27;4.90;;;4.10;;
67986;SDS011;54767;53.800;15.956;2022-09-09T15:36:55;3.30;;;3.10;;
67986;SDS011;54767;53.800;15.956;2022-09-09T15:39:23;3.60;;;3.10;;
67986;SDS011;54767;53.800;15.956;2022-09-09T15:41:51;3.00;;;2.80;;
67986;SDS011;54767;53.800;15.956;2022-09-09T15:44:19;4.40;;;3.80;;
67986;SDS011;54767;53.800;15.956;2022-09-09T15:46:51;4.90;;;4.20;;
67986;SDS011;54767;53.800;15.956;2022-09-09T15:49:24;6.40;;;5.80;;
67986;SDS011;54767;53.800;15.956;2022-09-09T15:51:55;6.40;;;5.60;;
67986;SDS011;54767;53.800;15.956;2022-09-09T15:54:25;5.20;;;4.60;;
67986;SDS011;54767;53.800;15.956;2022-09-09T15:56:55;4.50;;;4.10;;
67986;SDS011;54767;53.800;15.956;2022-09-09T15:59:26;3.90;;;3.60;;
67986;SDS011;54767;53.800;15.956;2022-09-09T16:01:55;4.00;;;3.70;;
67986;SDS011;54767;53.800;15.956;2022-09-09T16:04:24;3.60;;;3.30;;
67986;SDS011;54767;53.800;15.956;2022-09-09T16:06:53;3.40;;;3.10;;
67986;SDS011;54767;53.800;15.956;2022-09-09T16:09:26;3.40;;;3.20;;
67986;SDS011;54767;53.800;15.956;2022-09-09T16:11:56;3.40;;;3.10;;
67986;SDS011;54767;53.800;15.956;2022-09-09T16:14:26;3.90;;;3.60;;
67986;SDS011;54767;53.800;15.956;2022-09-09T16:16:55;6.00;;;5.40;;
67986;SDS011;54767;53.800;15.956;2022-09-09T16:19:26;10.70;;;8.40;;
67986;SDS011;54767;53.800;15.956;2022-09-09T16:21:54;15.60;;;13.60;;
67986;SDS011;54767;53.800;15.956;2022-09-09T16:24:23;16.40;;;13.40;;
67986;SDS011;54767;53.800;15.956;2022-09-09T16:26:52;10.60;;;8.70;;
67986;SDS011;54767;53.800;15.956;2022-09-09T16:29:22;8.40;;;7.00;;
67986;SDS011;54767;53.800;15.956;2022-09-09T16:34:19;7.20;;;5.40;;
67986;SDS011;54767;53.800;15.956;2022-09-09T16:36:48;9.20;;;5.30;;
67986;SDS011;54767;53.800;15.956;2022-09-09T16:39:19;10.70;;;5.60;;
67986;SDS011;54767;53.800;15.956;2022-09-09T16:41:48;36.00;;;6.80;;
67986;SDS011;54767;53.800;15.956;2022-09-09T16:44:17;115.70;;;12.20;;
67986;SDS011;54767;53.800;15.956;2022-09-09T16:46:47;41.80;;;6.40;;
67986;SDS011;54767;53.800;15.956;2022-09-09T16:49:16;24.10;;;5.70;;
67986;SDS011;54767;53.800;15.956;2022-09-09T16:51:45;12.80;;;4.80;;
67986;SDS011;54767;53.800;15.956;2022-09-09T16:54:16;50.50;;;7.90;;
67986;SDS011;54767;53.800;15.956;2022-09-09T16:56:46;82.50;;;10.10;;
67986;SDS011;54767;53.800;15.956;2022-09-09T16:59:16;45.00;;;7.30;;
67986;SDS011;54767;53.800;15.956;2022-09-09T17:01:47;44.40;;;7.70;;
67986;SDS011;54767;53.800;15.956;2022-09-09T17:04:24;27.20;;;6.40;;
67986;SDS011;54767;53.800;15.956;2022-09-09T17:06:54;71.50;;;8.90;;
67986;SDS011;54767;53.800;15.956;2022-09-09T17:09:24;32.80;;;15.30;;
67986;SDS011;54767;53.800;15.956;2022-09-09T17:11:57;20.60;;;12.20;;
67986;SDS011;54767;53.800;15.956;2022-09-09T17:14:26;24.40;;;11.10;;
67986;SDS011;54767;53.800;15.956;2022-09-09T17:16:54;22.50;;;8.10;;
67986;SDS011;54767;53.800;15.956;2022-09-09T17:19:22;16.40;;;8.90;;
67986;SDS011;54767;53.800;15.956;2022-09-09T17:21:50;22.40;;;9.60;;
67986;SDS011;54767;53.800;15.956;2022-09-09T17:24:39;44.40;;;11.50;;
67986;SDS011;54767;53.800;15.956;2022-09-09T17:27:08;22.10;;;9.90;;
67986;SDS011;54767;53.800;15.956;2022-09-09T17:29:36;16.90;;;8.50;;
67986;SDS011;54767;53.800;15.956;2022-09-09T17:32:05;30.90;;;9.40;;
67986;SDS011;54767;53.800;15.956;2022-09-09T17:34:34;48.20;;;11.00;;
67986;SDS011;54767;53.800;15.956;2022-09-09T17:37:03;16.30;;;8.80;;
67986;SDS011;54767;53.800;15.956;2022-09-09T17:39:33;12.70;;;8.90;;
67986;SDS011;54767;53.800;15.956;2022-09-09T17:42:02;12.50;;;8.80;;
67986;SDS011;54767;53.800;15.956;2022-09-09T17:44:30;10.40;;;8.40;;